createdAt,value
2019-06-10T00:01:00.002Z,1001.73
2019-06-10T00:01:59.520Z,1001.71
2019-06-10T00:03:00.323Z,1001.68
2019-06-10T00:04:00.506Z,1001.66
2019-06-10T00:05:00.291Z,1001.64
2019-06-10T00:06:01.885Z,1001.66
2019-06-10T00:07:02.021Z,1001.60
2019-06-10T00:08:02.105Z,1001.60
2019-06-10T00:09:03.078Z,1001.58
2019-06-10T00:10:02.165Z,1001.55
2019-06-10T00:11:01.759Z,1001.54
2019-06-10T00:12:01.530Z,1001.52
2019-06-10T00:13:02.240Z,1001.50
2019-06-10T00:14:01.167Z,1001.45
2019-06-10T00:15:01.311Z,1001.45
2019-06-10T00:16:01.280Z,1001.43
2019-06-10T00:17:01.527Z,1001.42
2019-06-10T00:18:18.716Z,1001.41
2019-06-10T00:19:02.821Z,1001.41
2019-06-10T00:20:01.927Z,1001.38
2019-06-10T00:21:01.926Z,1001.37
2019-06-10T00:22:01.699Z,1001.36
2019-06-10T00:23:01.689Z,1001.35
2019-06-10T00:24:01.694Z,1001.32
2019-06-10T00:25:01.796Z,1001.34
2019-06-10T00:26:03.756Z,1001.32
2019-06-10T00:27:00.295Z,1001.29
2019-06-10T00:28:00.537Z,1001.32
2019-06-10T00:29:00.679Z,1001.30
2019-06-10T00:30:02.846Z,1001.25
2019-06-10T00:31:01.204Z,1001.26
2019-06-10T00:32:03.181Z,1001.22
2019-06-10T00:33:01.194Z,1001.19
2019-06-10T00:34:02.927Z,1001.20
2019-06-10T00:35:01.947Z,1001.22
2019-06-10T00:36:03.717Z,1001.19
2019-06-10T00:37:01.989Z,1001.15
2019-06-10T00:38:02.056Z,1001.18
2019-06-10T00:39:02.433Z,1001.15
2019-06-10T00:40:02.165Z,1001.15
2019-06-10T00:41:02.306Z,1001.14
2019-06-10T00:42:02.499Z,1001.16
2019-06-10T00:43:02.164Z,1001.13
2019-06-10T00:44:02.162Z,1001.10
2019-06-10T00:45:02.680Z,1001.10
2019-06-10T00:46:00.689Z,1001.14
2019-06-10T00:47:00.694Z,1001.09
2019-06-10T00:48:13.546Z,1001.10
2019-06-10T00:49:03.942Z,1001.11
2019-06-10T00:50:03.286Z,1001.15
2019-06-10T00:51:01.330Z,1001.15
2019-06-10T00:52:02.462Z,1001.14
2019-06-10T00:53:01.339Z,1001.14
2019-06-10T00:54:03.334Z,1001.13
2019-06-10T00:55:01.693Z,1001.05
2019-06-10T00:56:02.333Z,1001.06
2019-06-10T00:57:01.223Z,1001.00
2019-06-10T00:58:01.437Z,1001.01
2019-06-10T00:59:01.062Z,1001.00
2019-06-10T01:00:01.690Z,1000.98
2019-06-10T01:01:01.182Z,1000.97
2019-06-10T01:02:01.718Z,1000.97
2019-06-10T01:03:01.109Z,1000.98
2019-06-10T01:04:02.936Z,1000.99
2019-06-10T01:05:00.876Z,1000.91
2019-06-10T01:06:02.597Z,1000.92
2019-06-10T01:07:00.771Z,1000.97
2019-06-10T01:08:01.349Z,1000.89
2019-06-10T01:09:00.686Z,1000.90
2019-06-10T01:10:01.084Z,1000.92
2019-06-10T01:11:05.660Z,1000.88
2019-06-10T01:12:01.189Z,1000.87
2019-06-10T01:13:00.843Z,1000.86
2019-06-10T01:14:01.460Z,1000.84
2019-06-10T01:15:00.892Z,1000.84
2019-06-10T01:16:01.626Z,1000.83
2019-06-10T01:17:01.256Z,1000.86
2019-06-10T01:18:01.353Z,1000.83
2019-06-10T01:19:01.468Z,1000.83
2019-06-10T01:20:01.551Z,1000.82
2019-06-10T01:21:02.005Z,1000.81
2019-06-10T01:22:01.522Z,1000.81
2019-06-10T01:23:01.559Z,1000.82
2019-06-10T01:24:01.172Z,1000.83
2019-06-10T01:25:01.634Z,1000.80
2019-06-10T01:26:01.620Z,1000.79
2019-06-10T01:27:01.272Z,1000.77
2019-06-10T01:28:00.649Z,1000.79
2019-06-10T01:29:01.072Z,1000.78
2019-06-10T01:30:02.979Z,1000.78
2019-06-10T01:31:01.143Z,1000.78
2019-06-10T01:32:01.703Z,1000.78
2019-06-10T01:33:01.147Z,1000.79
2019-06-10T01:34:00.848Z,1000.74
2019-06-10T01:35:01.263Z,1000.73
2019-06-10T01:36:00.877Z,1000.71
2019-06-10T01:37:01.464Z,1000.73
2019-06-10T01:38:01.087Z,1000.72
2019-06-10T01:39:01.574Z,1000.65
2019-06-10T01:40:00.917Z,1000.65
2019-06-10T01:41:01.485Z,1000.66
2019-06-10T01:42:00.877Z,1000.66
2019-06-10T01:43:01.139Z,1000.64
2019-06-10T01:44:01.767Z,1000.63
2019-06-10T01:45:01.264Z,1000.59
2019-06-10T01:46:01.594Z,1000.60
2019-06-10T01:47:01.108Z,1000.59
2019-06-10T01:48:01.430Z,1000.57
2019-06-10T01:49:01.021Z,1000.59
2019-06-10T01:50:01.022Z,1000.54
2019-06-10T01:51:01.762Z,1000.52
2019-06-10T01:52:01.638Z,1000.51
2019-06-10T01:53:01.096Z,1000.52
2019-06-10T01:54:01.405Z,1000.50
2019-06-10T01:55:01.630Z,1000.52
2019-06-10T01:56:01.185Z,1000.50
2019-06-10T01:57:01.595Z,1000.51
2019-06-10T01:58:01.182Z,1000.50
2019-06-10T01:59:01.553Z,1000.50
2019-06-10T02:00:08.998Z,1000.56
2019-06-10T02:01:01.528Z,1000.51
2019-06-10T02:02:01.257Z,1000.51
2019-06-10T02:03:03.543Z,1000.51
2019-06-10T02:04:01.296Z,1000.47
2019-06-10T02:05:01.882Z,1000.47
2019-06-10T02:06:01.611Z,1000.47
2019-06-10T02:07:01.471Z,1000.45
2019-06-10T02:08:01.373Z,1000.43
2019-06-10T02:09:01.516Z,1000.41
2019-06-10T02:10:01.450Z,1000.36
2019-06-10T02:11:01.436Z,1000.37
2019-06-10T02:12:02.208Z,1000.35
2019-06-10T02:13:01.472Z,1000.34
2019-06-10T02:14:01.489Z,1000.31
2019-06-10T02:15:01.508Z,1000.26
2019-06-10T02:16:01.544Z,1000.28
2019-06-10T02:17:01.564Z,1000.26
2019-06-10T02:18:01.577Z,1000.25
2019-06-10T02:19:04.230Z,1000.25
2019-06-10T02:20:01.606Z,1000.23
2019-06-10T02:21:01.706Z,1000.22
2019-06-10T02:22:01.774Z,1000.27
2019-06-10T02:23:02.029Z,1000.24
2019-06-10T02:24:01.684Z,1000.19
2019-06-10T02:25:01.707Z,1000.23
2019-06-10T02:26:02.076Z,1000.20
2019-06-10T02:27:01.745Z,1000.18
2019-06-10T02:28:01.759Z,1000.22
2019-06-10T02:29:01.782Z,1000.23
2019-06-10T02:30:13.211Z,1000.21
2019-06-10T02:31:03.822Z,1000.23
2019-06-10T02:32:04.752Z,1000.26
2019-06-10T02:33:02.509Z,1000.23
2019-06-10T02:34:02.639Z,1000.23
2019-06-10T02:35:13.197Z,1000.18
2019-06-10T02:36:04.003Z,1000.16
2019-06-10T02:37:04.630Z,1000.14
2019-06-10T02:38:03.525Z,1000.12
2019-06-10T02:39:04.651Z,1000.11
2019-06-10T02:40:04.458Z,1000.12
2019-06-10T02:41:04.424Z,1000.10
2019-06-10T02:42:04.545Z,1000.10
2019-06-10T02:43:03.499Z,1000.09
2019-06-10T02:44:04.343Z,1000.07
2019-06-10T02:45:03.810Z,1000.08
2019-06-10T02:46:04.284Z,1000.08
2019-06-10T02:47:03.431Z,1000.07
2019-06-10T02:48:04.141Z,1000.05
2019-06-10T02:49:20.903Z,1000.05
2019-06-10T02:50:07.336Z,1000.02
2019-06-10T02:51:03.901Z,1000.02
2019-06-10T02:52:03.359Z,1000.03
2019-06-10T02:53:04.025Z,999.99
2019-06-10T02:54:04.734Z,999.96
2019-06-10T02:55:04.155Z,999.96
2019-06-10T02:56:04.151Z,999.95
2019-06-10T02:57:04.351Z,999.94
2019-06-10T02:58:03.932Z,999.97
2019-06-10T02:59:03.384Z,1000.00
2019-06-10T03:00:06.405Z,999.99
2019-06-10T03:01:04.165Z,999.98
2019-06-10T03:02:03.029Z,1000.00
2019-06-10T03:03:03.922Z,999.97
2019-06-10T03:04:04.564Z,999.97
2019-06-10T03:05:04.624Z,999.94
2019-06-10T03:06:06.547Z,999.96
2019-06-10T03:07:03.430Z,999.94
2019-06-10T03:08:03.890Z,999.96
2019-06-10T03:09:03.748Z,999.95
2019-06-10T03:10:04.651Z,999.96
2019-06-10T03:11:03.720Z,999.93
2019-06-10T03:12:04.739Z,999.94
2019-06-10T03:13:02.668Z,999.91
2019-06-10T03:14:02.757Z,999.90
2019-06-10T03:15:02.661Z,999.88
2019-06-10T03:16:02.855Z,999.84
2019-06-10T03:17:03.159Z,999.83
2019-06-10T03:18:02.755Z,999.84
2019-06-10T03:19:03.082Z,999.84
2019-06-10T03:20:02.885Z,999.84
2019-06-10T03:21:02.846Z,999.86
2019-06-10T03:22:02.873Z,999.86
2019-06-10T03:23:03.049Z,999.84
2019-06-10T03:24:02.860Z,999.81
2019-06-10T03:25:03.050Z,999.86
2019-06-10T03:26:04.236Z,999.85
2019-06-10T03:27:02.891Z,999.88
2019-06-10T03:28:03.108Z,999.89
2019-06-10T03:29:02.956Z,999.92
2019-06-10T03:30:14.159Z,999.90
2019-06-10T03:31:05.915Z,999.88
2019-06-10T03:32:05.174Z,999.91
2019-06-10T03:33:04.928Z,999.86
2019-06-10T03:34:04.927Z,999.78
2019-06-10T03:35:05.493Z,999.76
2019-06-10T03:36:03.504Z,999.76
2019-06-10T03:37:03.081Z,999.72
2019-06-10T03:38:03.145Z,999.73
2019-06-10T03:39:03.118Z,999.70
2019-06-10T03:40:03.136Z,999.71
2019-06-10T03:41:03.456Z,999.73
2019-06-10T03:42:03.173Z,999.73
2019-06-10T03:43:03.199Z,999.73
2019-06-10T03:44:03.212Z,999.69
2019-06-10T03:45:03.465Z,999.69
2019-06-10T03:46:03.470Z,999.63
2019-06-10T03:47:03.272Z,999.63
2019-06-10T03:48:03.788Z,999.68
2019-06-10T03:49:03.334Z,999.67
2019-06-10T03:50:03.457Z,999.63
2019-06-10T03:51:03.627Z,999.63
2019-06-10T03:52:03.373Z,999.65
2019-06-10T03:53:04.412Z,999.64
2019-06-10T03:54:03.400Z,999.65
2019-06-10T03:55:03.421Z,999.67
2019-06-10T03:56:03.444Z,999.64
2019-06-10T03:57:03.459Z,999.68
2019-06-10T03:58:03.536Z,999.69
2019-06-10T03:59:03.501Z,999.68
2019-06-10T04:00:10.406Z,999.72
2019-06-10T04:01:03.542Z,999.73
2019-06-10T04:02:03.555Z,999.74
2019-06-10T04:03:03.577Z,999.75
2019-06-10T04:04:03.595Z,999.77
2019-06-10T04:05:03.612Z,999.78
2019-06-10T04:06:03.648Z,999.81
2019-06-10T04:07:04.034Z,999.79
2019-06-10T04:08:03.671Z,999.80
2019-06-10T04:09:03.694Z,999.77
2019-06-10T04:10:03.713Z,999.75
2019-06-10T04:11:03.726Z,999.79
2019-06-10T04:12:03.796Z,999.78
2019-06-10T04:13:03.768Z,999.78
2019-06-10T04:14:03.785Z,999.74
2019-06-10T04:15:03.805Z,999.71
2019-06-10T04:16:03.827Z,999.69
2019-06-10T04:17:03.848Z,999.67
2019-06-10T04:18:04.110Z,999.64
2019-06-10T04:19:03.879Z,999.62
2019-06-10T04:20:11.666Z,999.58
2019-06-10T04:21:03.922Z,999.56
2019-06-10T04:22:03.942Z,999.55
2019-06-10T04:23:03.961Z,999.50
2019-06-10T04:24:03.982Z,999.52
2019-06-10T04:25:04.006Z,999.47
2019-06-10T04:26:04.221Z,999.49
2019-06-10T04:27:04.050Z,999.49
2019-06-10T04:28:04.052Z,999.48
2019-06-10T04:29:04.080Z,999.51
2019-06-10T04:30:04.097Z,999.51
2019-06-10T04:31:04.117Z,999.50
2019-06-10T04:32:04.136Z,999.53
2019-06-10T04:33:04.146Z,999.55
2019-06-10T04:34:04.184Z,999.53
2019-06-10T04:35:04.189Z,999.57
2019-06-10T04:36:04.207Z,999.56
2019-06-10T04:37:04.228Z,999.52
2019-06-10T04:38:04.248Z,999.48
2019-06-10T04:39:04.267Z,999.44
2019-06-10T04:40:04.324Z,999.42
2019-06-10T04:41:04.328Z,999.42
2019-06-10T04:42:04.326Z,999.40
2019-06-10T04:43:04.343Z,999.38
2019-06-10T04:44:04.360Z,999.39
2019-06-10T04:45:04.380Z,999.38
2019-06-10T04:46:04.401Z,999.39
2019-06-10T04:47:04.419Z,999.41
2019-06-10T04:48:04.441Z,999.38
2019-06-10T04:49:04.511Z,999.41
2019-06-10T04:50:04.491Z,999.40
2019-06-10T04:51:04.502Z,999.41
2019-06-10T04:52:04.518Z,999.38
2019-06-10T04:53:04.542Z,999.37
2019-06-10T04:54:04.554Z,999.36
2019-06-10T04:55:04.580Z,999.36
2019-06-10T04:56:04.594Z,999.32
2019-06-10T04:57:04.632Z,999.30
2019-06-10T04:58:04.644Z,999.25
2019-06-10T04:59:04.663Z,999.25
2019-06-10T05:00:11.299Z,999.25
2019-06-10T05:01:04.693Z,999.29
2019-06-10T05:02:05.817Z,999.29
2019-06-10T05:03:04.734Z,999.31
2019-06-10T05:04:04.752Z,999.28
2019-06-10T05:05:04.772Z,999.29
2019-06-10T05:06:04.791Z,999.27
2019-06-10T05:07:04.812Z,999.27
2019-06-10T05:08:04.840Z,999.29
2019-06-10T05:09:04.850Z,999.36
2019-06-10T05:10:04.878Z,999.37
2019-06-10T05:11:04.892Z,999.40
2019-06-10T05:12:04.909Z,999.43
2019-06-10T05:13:04.947Z,999.47
2019-06-10T05:14:04.951Z,999.50
2019-06-10T05:15:04.968Z,999.50
2019-06-10T05:16:04.990Z,999.57
2019-06-10T05:17:05.007Z,999.57
2019-06-10T05:18:05.026Z,999.60
2019-06-10T05:19:05.045Z,999.64
2019-06-10T05:20:05.067Z,999.65
2019-06-10T05:21:05.089Z,999.65
2019-06-10T05:22:05.108Z,999.65
2019-06-10T05:23:05.125Z,999.65
2019-06-10T05:24:05.149Z,999.62
2019-06-10T05:25:05.169Z,999.63
2019-06-10T05:26:05.185Z,999.64
2019-06-10T05:27:05.227Z,999.63
2019-06-10T05:28:05.229Z,999.65
2019-06-10T05:29:05.245Z,999.69
2019-06-10T05:30:05.265Z,999.68
2019-06-10T05:31:05.284Z,999.70
2019-06-10T05:32:05.415Z,999.74
2019-06-10T05:33:05.336Z,999.74
2019-06-10T05:34:05.343Z,999.73
2019-06-10T05:35:05.369Z,999.73
2019-06-10T05:36:05.388Z,999.73
2019-06-10T05:37:05.406Z,999.70
2019-06-10T05:38:05.429Z,999.70
2019-06-10T05:39:05.444Z,999.71
2019-06-10T05:40:05.592Z,999.66
2019-06-10T05:41:05.492Z,999.64
2019-06-10T05:42:05.523Z,999.63
2019-06-10T05:43:05.521Z,999.64
2019-06-10T05:44:05.549Z,999.65
2019-06-10T05:45:05.558Z,999.67
2019-06-10T05:46:05.582Z,999.67
2019-06-10T05:47:05.618Z,999.64
2019-06-10T05:48:05.621Z,999.66
2019-06-10T05:49:05.659Z,999.69
2019-06-10T05:50:05.662Z,999.72
2019-06-10T05:51:06.787Z,999.74
2019-06-10T05:52:05.700Z,999.72
2019-06-10T05:53:05.716Z,999.72
2019-06-10T05:54:05.737Z,999.78
2019-06-10T05:55:05.765Z,999.70
2019-06-10T05:56:05.785Z,999.69
2019-06-10T05:57:05.802Z,999.71
2019-06-10T05:58:05.823Z,999.76
2019-06-10T05:59:05.844Z,999.82
2019-06-10T06:00:11.277Z,999.90
2019-06-10T06:01:05.879Z,999.97
2019-06-10T06:02:05.894Z,999.97
2019-06-10T06:03:05.926Z,999.98
2019-06-10T06:04:05.946Z,999.93
2019-06-10T06:05:05.960Z,999.94
2019-06-10T06:06:05.977Z,1000.01
2019-06-10T06:07:06.002Z,1000.08
2019-06-10T06:08:08.700Z,1000.18
2019-06-10T06:09:06.041Z,1000.27
2019-06-10T06:10:06.064Z,1000.98
2019-06-10T06:11:06.081Z,1000.51
2019-06-10T06:12:06.222Z,1000.70
2019-06-10T06:13:06.139Z,1000.38
2019-06-10T06:14:06.153Z,1000.83
2019-06-10T06:15:06.173Z,1001.37
2019-06-10T06:16:06.187Z,1000.77
2019-06-10T06:17:06.210Z,1000.53
2019-06-10T06:18:10.409Z,1000.63
2019-06-10T06:19:06.253Z,1000.14
2019-06-10T06:20:06.276Z,999.87
2019-06-10T06:21:20.782Z,999.78
2019-06-10T06:22:06.315Z,999.69
2019-06-10T06:23:08.922Z,999.69
2019-06-10T06:24:06.399Z,999.69
2019-06-10T06:25:06.398Z,999.70
2019-06-10T06:26:06.407Z,999.60
2019-06-10T06:27:06.446Z,999.58
2019-06-10T06:28:06.450Z,999.52
2019-06-10T06:29:06.473Z,1000.26
2019-06-10T06:30:11.415Z,999.73
2019-06-10T06:31:06.526Z,999.69
2019-06-10T06:32:06.545Z,999.98
2019-06-10T06:33:06.565Z,999.92
2019-06-10T06:34:06.586Z,1000.42
2019-06-10T06:35:06.627Z,1000.34
2019-06-10T06:36:06.648Z,1000.15
2019-06-10T06:37:06.653Z,1000.37
2019-06-10T06:38:06.682Z,999.76
2019-06-10T06:39:06.708Z,999.62
2019-06-10T06:40:06.724Z,1000.14
2019-06-10T06:41:06.750Z,999.61
2019-06-10T06:42:06.767Z,999.61
2019-06-10T06:43:06.791Z,999.59
2019-06-10T06:44:06.809Z,999.61
2019-06-10T06:45:06.834Z,999.69
2019-06-10T06:46:06.857Z,999.75
2019-06-10T06:47:06.880Z,999.90
2019-06-10T06:48:06.903Z,1000.17
2019-06-10T06:49:06.930Z,1000.38
2019-06-10T06:50:07.008Z,1001.35
2019-06-10T06:51:08.726Z,1001.80
2019-06-10T06:52:07.001Z,1001.98
2019-06-10T06:53:23.380Z,1001.69
2019-06-10T06:54:07.038Z,1001.52
2019-06-10T06:55:07.058Z,1001.47
2019-06-10T06:56:07.085Z,1001.47
2019-06-10T06:57:07.137Z,1001.21
2019-06-10T06:58:07.133Z,1001.31
2019-06-10T06:59:07.162Z,1001.33
2019-06-10T07:00:34.274Z,1001.27
2019-06-10T07:01:10.885Z,1001.24
2019-06-10T07:02:07.226Z,1001.23
2019-06-10T07:03:07.269Z,1000.99
2019-06-10T07:04:07.284Z,1000.47
2019-06-10T07:05:07.306Z,1000.05
2019-06-10T07:06:07.332Z,1000.07
2019-06-10T07:07:07.349Z,1000.01
2019-06-10T07:08:07.397Z,1000.02
2019-06-10T07:09:08.334Z,999.99
2019-06-10T07:10:07.427Z,1000.39
2019-06-10T07:11:07.461Z,1001.25
2019-06-10T07:12:07.483Z,1000.36
2019-06-10T07:13:07.502Z,1000.05
2019-06-10T07:14:10.077Z,1000.04
2019-06-10T07:15:07.555Z,1000.29
2019-06-10T07:16:07.579Z,1001.42
2019-06-10T07:17:07.603Z,1000.74
2019-06-10T07:18:07.732Z,1000.31
2019-06-10T07:19:07.659Z,1001.49
2019-06-10T07:20:07.674Z,1001.51
2019-06-10T07:21:07.707Z,1001.42
2019-06-10T07:22:12.463Z,1001.39
2019-06-10T07:23:07.748Z,1001.39
2019-06-10T07:24:07.777Z,1001.41
2019-06-10T07:25:07.811Z,1001.29
2019-06-10T07:26:07.823Z,1000.73
2019-06-10T07:27:07.922Z,1001.02
2019-06-10T07:28:07.880Z,1001.13
2019-06-10T07:29:07.903Z,1001.34
2019-06-10T07:30:12.501Z,1001.30
2019-06-10T07:31:22.765Z,1001.26
2019-06-10T07:32:07.995Z,1001.28
2019-06-10T07:33:08.007Z,1001.31
2019-06-10T07:34:08.102Z,1001.24
2019-06-10T07:35:08.061Z,1001.13
2019-06-10T07:36:08.102Z,1000.90
2019-06-10T07:37:08.113Z,1001.20
2019-06-10T07:38:08.151Z,1001.19
2019-06-10T07:39:08.167Z,1001.11
2019-06-10T07:40:08.198Z,1001.08
2019-06-10T07:41:08.224Z,1001.02
2019-06-10T07:42:08.248Z,1001.02
2019-06-10T07:43:08.288Z,1001.03
2019-06-10T07:44:08.302Z,1001.04
2019-06-10T07:45:08.327Z,1000.96
2019-06-10T07:46:08.352Z,1001.04
2019-06-10T07:47:08.382Z,1001.05
2019-06-10T07:48:08.408Z,1001.02
2019-06-10T07:49:08.436Z,1001.02
2019-06-10T07:50:08.460Z,1001.04
2019-06-10T07:51:08.488Z,1001.01
2019-06-10T07:52:15.548Z,1000.37
2019-06-10T07:53:08.554Z,1000.00
2019-06-10T07:54:08.564Z,1000.11
2019-06-10T07:55:08.596Z,1000.68
2019-06-10T07:56:08.619Z,1000.77
2019-06-10T07:57:08.646Z,1000.43
2019-06-10T07:58:08.674Z,1000.75
2019-06-10T07:59:08.701Z,1000.76
2019-06-10T08:00:08.742Z,1001.16
2019-06-10T08:01:08.755Z,1001.05
2019-06-10T08:02:08.778Z,1000.96
2019-06-10T08:03:08.982Z,1001.12
2019-06-10T08:04:08.829Z,1001.25
2019-06-10T08:05:08.867Z,1001.20
2019-06-10T08:06:08.886Z,1001.17
2019-06-10T08:07:08.913Z,1001.35
2019-06-10T08:08:08.935Z,1001.50
2019-06-10T08:09:08.972Z,1000.91
2019-06-10T08:10:08.986Z,999.69
2019-06-10T08:11:09.013Z,999.76
2019-06-10T08:12:09.040Z,999.67
2019-06-10T08:13:09.064Z,999.64
2019-06-10T08:14:09.092Z,999.71
2019-06-10T08:15:09.117Z,999.71
2019-06-10T08:16:09.142Z,999.75
2019-06-10T08:17:09.174Z,999.54
2019-06-10T08:18:09.192Z,999.55
2019-06-10T08:19:25.990Z,999.59
2019-06-10T08:20:09.981Z,999.67
2019-06-10T08:21:09.310Z,999.65
2019-06-10T08:22:09.294Z,999.53
2019-06-10T08:23:09.322Z,999.67
2019-06-10T08:24:09.344Z,999.67
2019-06-10T08:25:09.373Z,999.65
2019-06-10T08:26:09.405Z,999.56
2019-06-10T08:27:09.418Z,999.71
2019-06-10T08:28:09.456Z,999.68
2019-06-10T08:29:09.474Z,999.57
2019-06-10T08:30:21.259Z,999.57
2019-06-10T08:31:12.157Z,999.55
2019-06-10T08:32:09.569Z,999.46
2019-06-10T08:33:09.570Z,999.45
2019-06-10T08:34:09.601Z,999.40
2019-06-10T08:35:09.617Z,999.42
2019-06-10T08:36:09.648Z,999.42
2019-06-10T08:37:09.698Z,999.37
2019-06-10T08:38:09.690Z,999.32
2019-06-10T08:39:12.173Z,999.28
2019-06-10T08:40:09.743Z,999.24
2019-06-10T08:41:12.082Z,999.20
2019-06-10T08:42:09.816Z,999.21
2019-06-10T08:43:09.811Z,999.21
2019-06-10T08:44:12.352Z,999.22
2019-06-10T08:45:12.324Z,999.16
2019-06-10T08:46:09.886Z,999.12
2019-06-10T08:47:12.290Z,999.11
2019-06-10T08:48:09.931Z,999.09
2019-06-10T08:49:12.486Z,999.04
2019-06-10T08:50:09.983Z,999.03
2019-06-10T08:51:12.324Z,998.97
2019-06-10T08:52:10.032Z,998.97
2019-06-10T08:53:14.825Z,998.94
2019-06-10T08:54:12.645Z,999.00
2019-06-10T08:55:12.406Z,999.02
2019-06-10T08:56:10.141Z,999.01
2019-06-10T08:57:12.475Z,998.95
2019-06-10T08:58:10.173Z,998.95
2019-06-10T08:59:12.288Z,998.95
2019-06-10T09:00:12.564Z,998.93
2019-06-10T09:01:12.696Z,998.92
2019-06-10T09:02:12.347Z,998.94
2019-06-10T09:03:12.453Z,998.93
2019-06-10T09:04:10.323Z,998.91
2019-06-10T09:05:12.561Z,998.96
2019-06-10T09:06:10.366Z,998.97
2019-06-10T09:07:12.564Z,999.02
2019-06-10T09:08:12.831Z,999.01
2019-06-10T09:09:12.690Z,999.01
2019-06-10T09:10:13.025Z,998.99
2019-06-10T09:11:12.744Z,999.01
2019-06-10T09:12:28.352Z,999.05
2019-06-10T09:13:12.922Z,999.08
2019-06-10T09:14:12.612Z,999.10
2019-06-10T09:15:12.921Z,999.07
2019-06-10T09:16:16.614Z,999.07
2019-06-10T09:17:12.553Z,999.06
2019-06-10T09:18:13.936Z,999.03
2019-06-10T09:19:13.158Z,999.00
2019-06-10T09:20:12.851Z,998.99
2019-06-10T09:21:12.720Z,998.92
2019-06-10T09:22:12.615Z,998.94
2019-06-10T09:23:19.201Z,998.94
2019-06-10T09:24:12.919Z,998.97
2019-06-10T09:25:12.392Z,998.92
2019-06-10T09:26:12.522Z,998.96
2019-06-10T09:27:12.905Z,998.90
2019-06-10T09:28:12.855Z,998.92
2019-06-10T09:29:13.457Z,998.89
2019-06-10T09:30:13.303Z,998.88
2019-06-10T09:31:13.772Z,998.80
2019-06-10T09:32:12.498Z,998.79
2019-06-10T09:33:13.001Z,998.80
2019-06-10T09:34:12.716Z,998.82
2019-06-10T09:35:12.632Z,998.80
2019-06-10T09:36:12.551Z,998.77
2019-06-10T09:37:12.447Z,998.79
2019-06-10T09:38:11.115Z,998.73
2019-06-10T09:39:12.620Z,998.76
2019-06-10T09:40:12.310Z,998.73
2019-06-10T09:41:14.042Z,998.69
2019-06-10T09:42:14.494Z,998.67
2019-06-10T09:43:12.845Z,998.65
2019-06-10T09:44:12.905Z,998.68
2019-06-10T09:45:12.994Z,998.63
2019-06-10T09:46:12.648Z,998.61
2019-06-10T09:47:14.268Z,998.60
2019-06-10T09:48:13.241Z,998.62
2019-06-10T09:49:12.713Z,998.55
2019-06-10T09:50:12.280Z,998.54
2019-06-10T09:51:12.478Z,998.48
2019-06-10T09:52:13.475Z,998.52
2019-06-10T09:53:12.700Z,998.47
2019-06-10T09:54:12.725Z,998.52
2019-06-10T09:55:12.851Z,998.48
2019-06-10T09:56:12.526Z,998.51
2019-06-10T09:57:12.708Z,998.47
2019-06-10T09:58:12.271Z,998.47
2019-06-10T09:59:12.474Z,998.44
2019-06-10T10:00:12.470Z,998.44
2019-06-10T10:01:13.317Z,998.43
2019-06-10T10:02:12.565Z,998.43
2019-06-10T10:03:12.319Z,998.39
2019-06-10T10:04:12.379Z,998.44
2019-06-10T10:05:11.755Z,998.54
2019-06-10T10:06:15.615Z,998.47
2019-06-10T10:07:12.218Z,998.45
2019-06-10T10:08:12.738Z,998.43
2019-06-10T10:09:11.852Z,998.39
2019-06-10T10:10:12.889Z,998.26
2019-06-10T10:11:12.923Z,998.36
2019-06-10T10:12:12.311Z,998.36
2019-06-10T10:13:13.124Z,998.31
2019-06-10T10:14:15.850Z,998.30
2019-06-10T10:15:24.239Z,998.35
2019-06-10T10:16:13.149Z,998.35
2019-06-10T10:17:12.866Z,998.40
2019-06-10T10:18:13.421Z,998.37
2019-06-10T10:19:13.051Z,998.29
2019-06-10T10:20:12.373Z,998.23
2019-06-10T10:21:13.064Z,998.24
2019-06-10T10:22:13.981Z,998.26
2019-06-10T10:23:13.651Z,998.34
2019-06-10T10:24:14.929Z,998.29
2019-06-10T10:25:14.397Z,998.28
2019-06-10T10:26:13.218Z,998.24
2019-06-10T10:27:13.402Z,998.31
2019-06-10T10:28:13.407Z,998.27
2019-06-10T10:29:13.025Z,998.28
2019-06-10T10:30:13.522Z,998.27
2019-06-10T10:31:13.097Z,998.34
2019-06-10T10:32:13.198Z,998.35
2019-06-10T10:33:12.913Z,998.39
2019-06-10T10:34:13.539Z,998.41
2019-06-10T10:35:12.753Z,998.42
2019-06-10T10:36:14.074Z,998.45
2019-06-10T10:37:12.505Z,998.48
2019-06-10T10:38:14.327Z,998.45
2019-06-10T10:39:13.965Z,998.37
2019-06-10T10:40:12.575Z,998.34
2019-06-10T10:41:13.584Z,998.36
2019-06-10T10:42:12.692Z,998.36
2019-06-10T10:43:25.197Z,998.36
2019-06-10T10:44:13.822Z,998.31
2019-06-10T10:45:13.337Z,998.26
2019-06-10T10:46:14.028Z,998.32
2019-06-10T10:47:12.738Z,998.32
2019-06-10T10:48:14.113Z,998.31
2019-06-10T10:49:13.427Z,998.31
2019-06-10T10:50:13.961Z,998.30
2019-06-10T10:51:13.366Z,998.35
2019-06-10T10:52:13.049Z,998.32
2019-06-10T10:53:12.979Z,998.28
2019-06-10T10:54:28.435Z,998.28
2019-06-10T10:55:13.171Z,998.32
2019-06-10T10:56:13.252Z,998.29
2019-06-10T10:57:13.236Z,998.27
2019-06-10T10:58:12.997Z,998.24
2019-06-10T10:59:13.487Z,998.22
2019-06-10T11:00:13.060Z,998.23
2019-06-10T11:01:15.042Z,998.21
2019-06-10T11:02:13.092Z,998.24
2019-06-10T11:03:13.457Z,998.24
2019-06-10T11:04:13.465Z,998.20
2019-06-10T11:05:13.164Z,998.20
2019-06-10T11:06:13.305Z,998.19
2019-06-10T11:07:13.207Z,998.22
2019-06-10T11:08:14.343Z,998.23
2019-06-10T11:09:13.285Z,998.23
2019-06-10T11:10:13.278Z,998.20
2019-06-10T11:11:13.684Z,998.16
2019-06-10T11:12:13.330Z,998.15
2019-06-10T11:13:13.353Z,998.12
2019-06-10T11:14:14.977Z,998.13
2019-06-10T11:15:13.784Z,998.11
2019-06-10T11:16:13.531Z,998.11
2019-06-10T11:17:13.448Z,998.14
2019-06-10T11:18:13.470Z,998.10
2019-06-10T11:19:13.493Z,998.04
2019-06-10T11:20:13.730Z,998.13
2019-06-10T11:21:13.555Z,998.15
2019-06-10T11:22:13.569Z,998.08
2019-06-10T11:23:13.591Z,997.98
2019-06-10T11:24:14.524Z,997.96
2019-06-10T11:25:13.646Z,997.93
2019-06-10T11:26:13.661Z,997.88
2019-06-10T11:27:13.689Z,997.87
2019-06-10T11:28:13.707Z,997.86
2019-06-10T11:29:13.733Z,997.88
2019-06-10T11:30:13.759Z,997.90
2019-06-10T11:31:14.240Z,997.84
2019-06-10T11:32:13.814Z,997.83
2019-06-10T11:33:13.830Z,997.87
2019-06-10T11:34:13.853Z,997.94
2019-06-10T11:35:13.874Z,998.00
2019-06-10T11:36:13.929Z,998.04
2019-06-10T11:37:13.921Z,998.02
2019-06-10T11:38:13.949Z,998.01
2019-06-10T11:39:13.975Z,997.99
2019-06-10T11:40:13.992Z,997.89
2019-06-10T11:41:14.033Z,997.82
2019-06-10T11:42:14.040Z,997.81
2019-06-10T11:43:14.064Z,997.78
2019-06-10T11:44:14.725Z,997.76
2019-06-10T11:45:14.125Z,997.75
2019-06-10T11:46:14.227Z,997.72
2019-06-10T11:47:14.161Z,997.75
2019-06-10T11:48:14.186Z,997.68
2019-06-10T11:49:14.208Z,997.65
2019-06-10T11:50:14.234Z,997.68
2019-06-10T11:51:14.277Z,997.73
2019-06-10T11:52:14.287Z,997.75
2019-06-10T11:53:14.311Z,997.67
2019-06-10T11:54:14.328Z,997.65
2019-06-10T11:55:18.960Z,997.69
2019-06-10T11:56:14.381Z,997.61
2019-06-10T11:57:14.406Z,997.55
2019-06-10T11:58:14.424Z,997.61
2019-06-10T11:59:14.454Z,997.60
2019-06-10T12:00:17.273Z,997.57
2019-06-10T12:01:14.503Z,997.55
2019-06-10T12:02:14.525Z,997.49
2019-06-10T12:03:14.555Z,997.50
2019-06-10T12:04:14.571Z,997.50
2019-06-10T12:05:14.596Z,997.48
2019-06-10T12:06:14.699Z,997.51
2019-06-10T12:07:14.639Z,997.51
2019-06-10T12:08:14.672Z,997.52
2019-06-10T12:09:14.710Z,997.46
2019-06-10T12:10:14.717Z,997.44
2019-06-10T12:11:14.737Z,997.43
2019-06-10T12:12:14.807Z,997.40
2019-06-10T12:13:14.788Z,997.41
2019-06-10T12:14:14.980Z,997.37
2019-06-10T12:15:14.835Z,997.34
2019-06-10T12:17:05.723Z,997.33
2019-06-10T12:17:32.736Z,997.30
2019-06-10T12:18:14.905Z,997.25
2019-06-10T12:19:14.931Z,997.26
2019-06-10T12:20:14.954Z,997.32